sensor_id;sensor_type;location;lat;lon;timestamp;pressure;altitude;pressure_sealevel;temperature;humidity
46876;BME280;32866;50.160;14.768;2023-04-30T00:00:41;99620.09;;;9.62;100.00
46876;BME280;32866;50.160;14.768;2023-04-30T00:03:06;99655.09;;;9.88;100.00
46876;BME280;32866;50.160;14.768;2023-04-30T00:05:31;99643.97;;;9.78;100.00
46876;BME280;32866;50.160;14.768;2023-04-30T00:07:57;99637.97;;;9.83;100.00
46876;BME280;32866;50.160;14.768;2023-04-30T00:10:22;99647.31;;;9.86;100.00
46876;BME280;32866;50.160;14.768;2023-04-30T00:12:48;99641.66;;;9.77;100.00
46876;BME280;32866;50.160;14.768;2023-04-30T00:15:13;99661.34;;;9.88;100.00
46876;BME280;32866;50.160;14.768;2023-04-30T00:17:39;99624.81;;;9.62;100.00
46876;BME280;32866;50.160;14.768;2023-04-30T00:20:05;99650.56;;;9.81;100.00
46876;BME280;32866;50.160;14.768;2023-04-30T00:22:31;99615.81;;;9.61;100.00
46876;BME280;32866;50.160;14.768;2023-04-30T00:24:57;99624.44;;;9.60;100.00
46876;BME280;32866;50.160;14.768;2023-04-30T00:27:22;99627.09;;;9.63;100.00
46876;BME280;32866;50.160;14.768;2023-04-30T00:29:48;99622.84;;;9.62;100.00
46876;BME280;32866;50.160;14.768;2023-04-30T00:32:16;99620.78;;;9.66;100.00
46876;BME280;32866;50.160;14.768;2023-04-30T00:34:42;99655.41;;;9.73;100.00
46876;BME280;32866;50.160;14.768;2023-04-30T00:37:07;99645.59;;;9.76;100.00
46876;BME280;32866;50.160;14.768;2023-04-30T00:39:32;99620.78;;;9.66;100.00
46876;BME280;32866;50.160;14.768;2023-04-30T00:41:58;99646.28;;;9.80;100.00
46876;BME280;32866;50.160;14.768;2023-04-30T00:44:23;99653.09;;;9.72;100.00
46876;BME280;32866;50.160;14.768;2023-04-30T00:46:49;99615.03;;;9.44;100.00
46876;BME280;32866;50.160;14.768;2023-04-30T00:49:14;99627.75;;;9.51;100.00
46876;BME280;32866;50.160;14.768;2023-04-30T00:51:40;99643.72;;;9.73;100.00
46876;BME280;32866;50.160;14.768;2023-04-30T00:54:07;99652.09;;;9.82;100.00
46876;BME280;32866;50.160;14.768;2023-04-30T00:56:32;99638.06;;;9.80;100.00
46876;BME280;32866;50.160;14.768;2023-04-30T00:58:58;99658.06;;;9.77;100.00
46876;BME280;32866;50.160;14.768;2023-04-30T01:01:27;99661.16;;;9.79;100.00
46876;BME280;32866;50.160;14.768;2023-04-30T01:03:53;99666.28;;;9.77;100.00
46876;BME280;32866;50.160;14.768;2023-04-30T01:06:19;99650.19;;;9.62;100.00
46876;BME280;32866;50.160;14.768;2023-04-30T01:08:44;99657.72;;;9.75;100.00
46876;BME280;32866;50.160;14.768;2023-04-30T01:11:27;99653.72;;;9.79;100.00
46876;BME280;32866;50.160;14.768;2023-04-30T01:14:14;99668.69;;;9.75;100.00
46876;BME280;32866;50.160;14.768;2023-04-30T01:16:47;99673.84;;;9.89;100.00
46876;BME280;32866;50.160;14.768;2023-04-30T01:22:02;99652.94;;;9.62;100.00
46876;BME280;32866;50.160;14.768;2023-04-30T01:28:04;99672.13;;;9.79;100.00
46876;BME280;32866;50.160;14.768;2023-04-30T01:30:33;99670.47;;;9.81;100.00
46876;BME280;32866;50.160;14.768;2023-04-30T01:32:59;99632.31;;;9.58;100.00
46876;BME280;32866;50.160;14.768;2023-04-30T01:40:54;99650.78;;;9.54;100.00
46876;BME280;32866;50.160;14.768;2023-04-30T01:43:37;99671.56;;;9.68;100.00
46876;BME280;32866;50.160;14.768;2023-04-30T01:46:19;99645.03;;;9.48;100.00
46876;BME280;32866;50.160;14.768;2023-04-30T01:51:52;99680.47;;;9.72;100.00
46876;BME280;32866;50.160;14.768;2023-04-30T01:54:51;99681.72;;;9.87;100.00
46876;BME280;32866;50.160;14.768;2023-04-30T01:57:28;99636.31;;;9.53;100.00
46876;BME280;32866;50.160;14.768;2023-04-30T01:59:56;99685.94;;;9.72;100.00
46876;BME280;32866;50.160;14.768;2023-04-30T02:02:22;99657.53;;;9.49;100.00
46876;BME280;32866;50.160;14.768;2023-04-30T02:04:47;99679.63;;;9.75;100.00
46876;BME280;32866;50.160;14.768;2023-04-30T02:07:19;99666.78;;;9.55;100.00
46876;BME280;32866;50.160;14.768;2023-04-30T02:09:50;99676.78;;;9.62;100.00
46876;BME280;32866;50.160;14.768;2023-04-30T02:12:15;99687.50;;;9.73;100.00
46876;BME280;32866;50.160;14.768;2023-04-30T02:14:41;99692.63;;;9.71;100.00
46876;BME280;32866;50.160;14.768;2023-04-30T02:17:06;99670.91;;;9.43;100.00
46876;BME280;32866;50.160;14.768;2023-04-30T02:19:32;99691.31;;;9.59;100.00
46876;BME280;32866;50.160;14.768;2023-04-30T02:21:57;99684.16;;;9.45;100.00
46876;BME280;32866;50.160;14.768;2023-04-30T02:24:22;99695.66;;;9.56;100.00
46876;BME280;32866;50.160;14.768;2023-04-30T02:26:48;99675.63;;;9.43;100.00
46876;BME280;32866;50.160;14.768;2023-04-30T02:29:13;99712.69;;;9.64;100.00
46876;BME280;32866;50.160;14.768;2023-04-30T02:31:38;99725.03;;;9.72;100.00
46876;BME280;32866;50.160;14.768;2023-04-30T02:34:04;99717.34;;;9.67;100.00
46876;BME280;32866;50.160;14.768;2023-04-30T02:36:29;99716.34;;;9.57;100.00
46876;BME280;32866;50.160;14.768;2023-04-30T02:38:57;99688.44;;;9.46;100.00
46876;BME280;32866;50.160;14.768;2023-04-30T02:41:23;99695.25;;;9.38;100.00
46876;BME280;32866;50.160;14.768;2023-04-30T02:43:48;99703.47;;;9.38;100.00
46876;BME280;32866;50.160;14.768;2023-04-30T02:46:13;99736.28;;;9.58;100.00
46876;BME280;32866;50.160;14.768;2023-04-30T02:48:39;99696.59;;;9.29;100.00
46876;BME280;32866;50.160;14.768;2023-04-30T02:51:04;99735.16;;;9.55;100.00
46876;BME280;32866;50.160;14.768;2023-04-30T02:53:30;99735.63;;;9.70;100.00
46876;BME280;32866;50.160;14.768;2023-04-30T02:55:55;99721.09;;;9.37;100.00
46876;BME280;32866;50.160;14.768;2023-04-30T02:58:20;99699.25;;;9.33;100.00
46876;BME280;32866;50.160;14.768;2023-04-30T03:00:46;99732.56;;;9.48;100.00
46876;BME280;32866;50.160;14.768;2023-04-30T03:03:11;99709.91;;;9.27;100.00
46876;BME280;32866;50.160;14.768;2023-04-30T03:05:36;99717.28;;;9.31;100.00
46876;BME280;32866;50.160;14.768;2023-04-30T03:08:02;99750.38;;;9.56;100.00
46876;BME280;32866;50.160;14.768;2023-04-30T03:10:27;99747.94;;;9.42;100.00
46876;BME280;32866;50.160;14.768;2023-04-30T03:12:53;99749.81;;;9.45;100.00
46876;BME280;32866;50.160;14.768;2023-04-30T03:15:18;99716.03;;;9.15;100.00
46876;BME280;32866;50.160;14.768;2023-04-30T03:17:43;99753.41;;;9.42;100.00
46876;BME280;32866;50.160;14.768;2023-04-30T03:20:09;99729.63;;;9.19;100.00
46876;BME280;32866;50.160;14.768;2023-04-30T03:22:35;99750.84;;;9.11;100.00
46876;BME280;32866;50.160;14.768;2023-04-30T03:25:00;99744.63;;;9.31;100.00
46876;BME280;32866;50.160;14.768;2023-04-30T03:27:26;99750.03;;;9.14;100.00
46876;BME280;32866;50.160;14.768;2023-04-30T03:29:51;99727.81;;;9.12;100.00
46876;BME280;32866;50.160;14.768;2023-04-30T03:32:16;99743.28;;;9.19;100.00
46876;BME280;32866;50.160;14.768;2023-04-30T03:34:42;99771.84;;;9.38;100.00
46876;BME280;32866;50.160;14.768;2023-04-30T03:37:07;99770.16;;;9.44;100.00
46876;BME280;32866;50.160;14.768;2023-04-30T03:39:33;99782.28;;;9.43;100.00
46876;BME280;32866;50.160;14.768;2023-04-30T03:41:58;99768.00;;;9.55;100.00
46876;BME280;32866;50.160;14.768;2023-04-30T03:44:23;99787.50;;;9.37;100.00
46876;BME280;32866;50.160;14.768;2023-04-30T03:46:49;99773.03;;;9.17;100.00
46876;BME280;32866;50.160;14.768;2023-04-30T03:49:14;99755.25;;;9.05;100.00
46876;BME280;32866;50.160;14.768;2023-04-30T03:51:40;99760.47;;;9.19;100.00
46876;BME280;32866;50.160;14.768;2023-04-30T03:54:06;99778.00;;;9.22;100.00
46876;BME280;32866;50.160;14.768;2023-04-30T03:56:32;99797.44;;;9.27;100.00
46876;BME280;32866;50.160;14.768;2023-04-30T03:58:58;99792.66;;;9.32;100.00
46876;BME280;32866;50.160;14.768;2023-04-30T04:01:23;99797.00;;;9.29;100.00
46876;BME280;32866;50.160;14.768;2023-04-30T04:03:49;99787.94;;;9.12;100.00
46876;BME280;32866;50.160;14.768;2023-04-30T04:06:15;99780.28;;;9.03;100.00
46876;BME280;32866;50.160;14.768;2023-04-30T04:08:40;99793.25;;;8.99;100.00
46876;BME280;32866;50.160;14.768;2023-04-30T04:11:10;99800.31;;;9.20;100.00
46876;BME280;32866;50.160;14.768;2023-04-30T04:13:36;99778.25;;;9.07;100.00
46876;BME280;32866;50.160;14.768;2023-04-30T04:16:01;99811.69;;;9.39;100.00
46876;BME280;32866;50.160;14.768;2023-04-30T04:18:26;99780.09;;;9.14;100.00
46876;BME280;32866;50.160;14.768;2023-04-30T04:20:54;99806.22;;;9.39;100.00
46876;BME280;32866;50.160;14.768;2023-04-30T04:23:20;99774.38;;;9.05;100.00
46876;BME280;32866;50.160;14.768;2023-04-30T04:25:45;99801.00;;;9.24;100.00
46876;BME280;32866;50.160;14.768;2023-04-30T04:28:13;99811.19;;;9.44;100.00
46876;BME280;32866;50.160;14.768;2023-04-30T04:30:38;99801.19;;;9.57;100.00
46876;BME280;32866;50.160;14.768;2023-04-30T04:33:05;99783.63;;;9.35;100.00
46876;BME280;32866;50.160;14.768;2023-04-30T04:35:31;99809.16;;;9.48;100.00
46876;BME280;32866;50.160;14.768;2023-04-30T04:37:56;99788.19;;;9.41;100.00
46876;BME280;32866;50.160;14.768;2023-04-30T04:40:21;99785.84;;;9.40;100.00
46876;BME280;32866;50.160;14.768;2023-04-30T04:42:49;99834.91;;;9.71;100.00
46876;BME280;32866;50.160;14.768;2023-04-30T04:45:16;99825.66;;;9.64;100.00
46876;BME280;32866;50.160;14.768;2023-04-30T04:47:41;99828.97;;;9.76;100.00
46876;BME280;32866;50.160;14.768;2023-04-30T04:50:07;99828.97;;;9.76;100.00
46876;BME280;32866;50.160;14.768;2023-04-30T04:52:32;99831.03;;;9.88;100.00
46876;BME280;32866;50.160;14.768;2023-04-30T04:54:58;99816.09;;;9.93;100.00
46876;BME280;32866;50.160;14.768;2023-04-30T04:57:23;99839.72;;;10.23;100.00
46876;BME280;32866;50.160;14.768;2023-04-30T04:59:49;99844.97;;;10.34;100.00
46876;BME280;32866;50.160;14.768;2023-04-30T05:02:14;99847.44;;;10.28;100.00
46876;BME280;32866;50.160;14.768;2023-04-30T05:04:39;99810.25;;;10.11;100.00
46876;BME280;32866;50.160;14.768;2023-04-30T05:07:05;99849.91;;;10.43;100.00
46876;BME280;32866;50.160;14.768;2023-04-30T05:09:32;99824.53;;;10.38;100.00
46876;BME280;32866;50.160;14.768;2023-04-30T05:11:57;99837.28;;;10.45;100.00
46876;BME280;32866;50.160;14.768;2023-04-30T05:14:23;99828.50;;;10.70;100.00
46876;BME280;32866;50.160;14.768;2023-04-30T05:16:48;99849.41;;;11.13;100.00
46876;BME280;32866;50.160;14.768;2023-04-30T05:19:14;99837.25;;;10.98;100.00
46876;BME280;32866;50.160;14.768;2023-04-30T05:21:39;99830.47;;;11.03;100.00
46876;BME280;32866;50.160;14.768;2023-04-30T05:24:05;99858.97;;;11.38;100.00
46876;BME280;32866;50.160;14.768;2023-04-30T05:26:30;99821.78;;;11.04;100.00
46876;BME280;32866;50.160;14.768;2023-04-30T05:28:56;99857.94;;;11.16;100.00
46876;BME280;32866;50.160;14.768;2023-04-30T05:31:21;99858.47;;;10.94;100.00
46876;BME280;32866;50.160;14.768;2023-04-30T05:33:47;99863.78;;;11.18;100.00
46876;BME280;32866;50.160;14.768;2023-04-30T05:36:12;99868.50;;;11.17;100.00
46876;BME280;32866;50.160;14.768;2023-04-30T05:38:38;99869.44;;;11.27;100.00
46876;BME280;32866;50.160;14.768;2023-04-30T05:41:03;99875.56;;;11.47;100.00
46876;BME280;32866;50.160;14.768;2023-04-30T05:43:29;99872.03;;;11.63;100.00
46876;BME280;32866;50.160;14.768;2023-04-30T05:45:54;99883.22;;;11.69;100.00
46876;BME280;32866;50.160;14.768;2023-04-30T05:48:20;99889.59;;;11.66;100.00
46876;BME280;32866;50.160;14.768;2023-04-30T05:50:45;99882.97;;;11.80;100.00
46876;BME280;32866;50.160;14.768;2023-04-30T05:53:12;99882.09;;;12.12;100.00
46876;BME280;32866;50.160;14.768;2023-04-30T05:55:37;99870.50;;;11.92;100.00
46876;BME280;32866;50.160;14.768;2023-04-30T05:58:03;99882.00;;;12.41;100.00
46876;BME280;32866;50.160;14.768;2023-04-30T06:00:28;99885.09;;;12.56;100.00
46876;BME280;32866;50.160;14.768;2023-04-30T06:02:53;99876.38;;;12.96;100.00
46876;BME280;32866;50.160;14.768;2023-04-30T06:05:19;99866.19;;;12.84;100.00
46876;BME280;32866;50.160;14.768;2023-04-30T06:07:44;99883.88;;;13.09;100.00
46876;BME280;32866;50.160;14.768;2023-04-30T06:10:10;99899.88;;;13.23;100.00
46876;BME280;32866;50.160;14.768;2023-04-30T06:12:36;99891.31;;;13.21;100.00
46876;BME280;32866;50.160;14.768;2023-04-30T06:15:02;99887.06;;;13.07;100.00
46876;BME280;32866;50.160;14.768;2023-04-30T06:17:27;99887.56;;;13.41;100.00
46876;BME280;32866;50.160;14.768;2023-04-30T06:19:53;99863.22;;;13.26;100.00
46876;BME280;32866;50.160;14.768;2023-04-30T06:22:18;99891.75;;;13.32;100.00
46876;BME280;32866;50.160;14.768;2023-04-30T06:24:44;99876.81;;;13.55;100.00
46876;BME280;32866;50.160;14.768;2023-04-30T06:27:09;99884.25;;;13.46;100.00
46876;BME280;32866;50.160;14.768;2023-04-30T06:29:35;99905.13;;;14.00;100.00
46876;BME280;32866;50.160;14.768;2023-04-30T06:32:00;99865.56;;;13.63;100.00
46876;BME280;32866;50.160;14.768;2023-04-30T06:34:25;99878.19;;;13.73;100.00
46876;BME280;32866;50.160;14.768;2023-04-30T06:36:51;99860.03;;;13.41;100.00
46876;BME280;32866;50.160;14.768;2023-04-30T06:39:16;99902.91;;;13.86;100.00
46876;BME280;32866;50.160;14.768;2023-04-30T06:41:42;99890.59;;;14.00;100.00
46876;BME280;32866;50.160;14.768;2023-04-30T06:44:07;99876.13;;;14.08;100.00
46876;BME280;32866;50.160;14.768;2023-04-30T06:46:33;99900.78;;;13.90;100.00
46876;BME280;32866;50.160;14.768;2023-04-30T06:48:58;99903.16;;;14.23;100.00
46876;BME280;32866;50.160;14.768;2023-04-30T06:51:24;99893.91;;;14.70;100.00
46876;BME280;32866;50.160;14.768;2023-04-30T06:53:50;99905.63;;;14.93;100.00
46876;BME280;32866;50.160;14.768;2023-04-30T06:56:15;99905.09;;;15.26;100.00
46876;BME280;32866;50.160;14.768;2023-04-30T06:58:41;99904.97;;;15.48;100.00
46876;BME280;32866;50.160;14.768;2023-04-30T07:01:06;99903.31;;;15.87;100.00
46876;BME280;32866;50.160;14.768;2023-04-30T07:03:33;99899.22;;;16.35;100.00
46876;BME280;32866;50.160;14.768;2023-04-30T07:05:58;99907.34;;;16.38;100.00
46876;BME280;32866;50.160;14.768;2023-04-30T07:08:23;99908.50;;;16.65;100.00
46876;BME280;32866;50.160;14.768;2023-04-30T07:10:48;99902.03;;;17.25;100.00
46876;BME280;32866;50.160;14.768;2023-04-30T07:13:14;99867.59;;;17.27;100.00
46876;BME280;32866;50.160;14.768;2023-04-30T07:15:40;99903.91;;;17.83;100.00
46876;BME280;32866;50.160;14.768;2023-04-30T07:18:06;99897.00;;;18.17;97.44
46876;BME280;32866;50.160;14.768;2023-04-30T07:20:31;99897.94;;;18.29;93.21
46876;BME280;32866;50.160;14.768;2023-04-30T07:22:56;99901.13;;;18.22;93.27
46876;BME280;32866;50.160;14.768;2023-04-30T07:25:22;99900.56;;;17.78;98.77
46876;BME280;32866;50.160;14.768;2023-04-30T07:27:47;99865.97;;;16.10;100.00
46876;BME280;32866;50.160;14.768;2023-04-30T07:30:12;99893.91;;;15.29;100.00
46876;BME280;32866;50.160;14.768;2023-04-30T07:32:38;99903.75;;;14.80;100.00
46876;BME280;32866;50.160;14.768;2023-04-30T07:35:05;99902.50;;;15.50;100.00
46876;BME280;32866;50.160;14.768;2023-04-30T07:37:31;99902.44;;;17.57;100.00
46876;BME280;32866;50.160;14.768;2023-04-30T07:39:56;99900.25;;;18.01;97.77
46876;BME280;32866;50.160;14.768;2023-04-30T07:42:22;99907.06;;;18.80;92.53
46876;BME280;32866;50.160;14.768;2023-04-30T07:44:47;99882.78;;;18.60;88.62
46876;BME280;32866;50.160;14.768;2023-04-30T07:47:13;99905.94;;;17.43;95.44
46876;BME280;32866;50.160;14.768;2023-04-30T07:49:38;99901.47;;;16.55;100.00
46876;BME280;32866;50.160;14.768;2023-04-30T07:52:03;99906.19;;;15.37;100.00
46876;BME280;32866;50.160;14.768;2023-04-30T07:54:30;99918.16;;;14.22;100.00
46876;BME280;32866;50.160;14.768;2023-04-30T07:56:55;99913.84;;;13.77;100.00
46876;BME280;32866;50.160;14.768;2023-04-30T07:59:20;99882.28;;;13.33;100.00
46876;BME280;32866;50.160;14.768;2023-04-30T08:01:48;99901.94;;;15.83;100.00
46876;BME280;32866;50.160;14.768;2023-04-30T08:04:14;99887.28;;;17.83;99.96
46876;BME280;32866;50.160;14.768;2023-04-30T08:06:39;99919.09;;;19.48;81.17
46876;BME280;32866;50.160;14.768;2023-04-30T08:09:04;99905.94;;;20.15;73.96
46876;BME280;32866;50.160;14.768;2023-04-30T08:11:30;99890.63;;;21.01;70.89
46876;BME280;32866;50.160;14.768;2023-04-30T08:13:55;99894.88;;;20.21;62.81
46876;BME280;32866;50.160;14.768;2023-04-30T08:16:20;99890.53;;;19.06;70.24
46876;BME280;32866;50.160;14.768;2023-04-30T08:18:46;99899.56;;;17.52;75.49
46876;BME280;32866;50.160;14.768;2023-04-30T08:21:13;99913.34;;;16.79;76.17
46876;BME280;32866;50.160;14.768;2023-04-30T08:23:38;99918.31;;;16.05;81.69
46876;BME280;32866;50.160;14.768;2023-04-30T08:26:04;99905.22;;;16.24;81.00
46876;BME280;32866;50.160;14.768;2023-04-30T08:28:29;99913.75;;;15.92;82.20
46876;BME280;32866;50.160;14.768;2023-04-30T08:30:55;99915.03;;;16.77;81.70
46876;BME280;32866;50.160;14.768;2023-04-30T08:33:20;99905.44;;;15.92;76.04
46876;BME280;32866;50.160;14.768;2023-04-30T08:35:46;99886.19;;;15.06;82.22
46876;BME280;32866;50.160;14.768;2023-04-30T08:38:11;99916.13;;;14.67;85.54
46876;BME280;32866;50.160;14.768;2023-04-30T08:40:38;99916.44;;;15.18;85.26
46876;BME280;32866;50.160;14.768;2023-04-30T08:43:05;99908.06;;;14.91;83.93
46876;BME280;32866;50.160;14.768;2023-04-30T08:45:35;99904.19;;;15.93;81.28
46876;BME280;32866;50.160;14.768;2023-04-30T08:48:03;99876.78;;;16.84;79.31
46876;BME280;32866;50.160;14.768;2023-04-30T08:50:30;99911.44;;;16.52;78.55
46876;BME280;32866;50.160;14.768;2023-04-30T08:52:59;99908.66;;;15.72;78.67
46876;BME280;32866;50.160;14.768;2023-04-30T08:55:28;99906.75;;;15.14;79.11
46876;BME280;32866;50.160;14.768;2023-04-30T08:57:53;99886.56;;;14.76;81.25
46876;BME280;32866;50.160;14.768;2023-04-30T09:00:19;99912.81;;;14.90;80.94
46876;BME280;32866;50.160;14.768;2023-04-30T09:02:45;99912.41;;;16.49;80.64
46876;BME280;32866;50.160;14.768;2023-04-30T09:05:13;99911.91;;;18.20;67.62
46876;BME280;32866;50.160;14.768;2023-04-30T09:07:41;99912.69;;;18.35;61.54
46876;BME280;32866;50.160;14.768;2023-04-30T09:10:18;99907.59;;;17.25;68.93
46876;BME280;32866;50.160;14.768;2023-04-30T09:12:44;99919.47;;;16.83;72.83
46876;BME280;32866;50.160;14.768;2023-04-30T09:15:10;99918.81;;;15.85;78.17
46876;BME280;32866;50.160;14.768;2023-04-30T09:17:36;99898.88;;;14.94;80.13
46876;BME280;32866;50.160;14.768;2023-04-30T09:20:10;99926.72;;;14.77;78.94
46876;BME280;32866;50.160;14.768;2023-04-30T09:22:37;99931.88;;;14.66;79.42
46876;BME280;32866;50.160;14.768;2023-04-30T09:25:03;99928.59;;;14.90;77.22
46876;BME280;32866;50.160;14.768;2023-04-30T09:27:29;99931.09;;;15.84;74.75
46876;BME280;32866;50.160;14.768;2023-04-30T09:29:54;99907.81;;;18.00;65.91
46876;BME280;32866;50.160;14.768;2023-04-30T09:32:20;99923.06;;;20.08;64.14
46876;BME280;32866;50.160;14.768;2023-04-30T09:34:45;99898.44;;;20.27;54.90
46876;BME280;32866;50.160;14.768;2023-04-30T09:37:10;99933.44;;;19.25;56.44
46876;BME280;32866;50.160;14.768;2023-04-30T09:39:54;99911.28;;;17.86;60.41
46876;BME280;32866;50.160;14.768;2023-04-30T09:42:21;99912.34;;;16.67;63.71
46876;BME280;32866;50.160;14.768;2023-04-30T09:44:46;99936.84;;;16.32;64.06
46876;BME280;32866;50.160;14.768;2023-04-30T09:47:14;99932.91;;;18.71;61.10
46876;BME280;32866;50.160;14.768;2023-04-30T09:49:41;99932.16;;;19.41;56.55
46876;BME280;32866;50.160;14.768;2023-04-30T09:52:07;99896.81;;;19.21;56.29
46876;BME280;32866;50.160;14.768;2023-04-30T09:54:32;99930.63;;;18.54;54.47
46876;BME280;32866;50.160;14.768;2023-04-30T09:56:59;99921.72;;;17.28;54.80
46876;BME280;32866;50.160;14.768;2023-04-30T09:59:30;99923.72;;;18.65;53.99
46876;BME280;32866;50.160;14.768;2023-04-30T10:02:01;99919.41;;;20.86;47.63
46876;BME280;32866;50.160;14.768;2023-04-30T10:04:29;99915.34;;;22.81;43.34
46876;BME280;32866;50.160;14.768;2023-04-30T10:06:57;99916.44;;;23.48;42.17
46876;BME280;32866;50.160;14.768;2023-04-30T10:09:25;99910.47;;;23.10;42.71
46876;BME280;32866;50.160;14.768;2023-04-30T10:11:55;99918.28;;;20.67;44.99
46876;BME280;32866;50.160;14.768;2023-04-30T10:14:22;99917.13;;;22.84;43.02
46876;BME280;32866;50.160;14.768;2023-04-30T10:16:50;99915.38;;;23.57;41.00
46876;BME280;32866;50.160;14.768;2023-04-30T10:19:22;99920.94;;;23.62;38.67
46876;BME280;32866;50.160;14.768;2023-04-30T10:21:47;99893.50;;;24.02;37.59
46876;BME280;32866;50.160;14.768;2023-04-30T10:24:14;99901.31;;;23.15;36.65
46876;BME280;32866;50.160;14.768;2023-04-30T10:26:42;99905.91;;;24.43;34.87
46876;BME280;32866;50.160;14.768;2023-04-30T10:29:08;99897.66;;;25.30;37.19
46876;BME280;32866;50.160;14.768;2023-04-30T10:31:35;99898.84;;;25.60;34.74
46876;BME280;32866;50.160;14.768;2023-04-30T10:36:45;99912.38;;;24.32;37.59
46876;BME280;32866;50.160;14.768;2023-04-30T10:39:14;99899.38;;;24.65;35.80
46876;BME280;32866;50.160;14.768;2023-04-30T10:41:39;99907.63;;;24.52;37.06
46876;BME280;32866;50.160;14.768;2023-04-30T10:44:08;99877.16;;;24.42;35.83
46876;BME280;32866;50.160;14.768;2023-04-30T10:46:34;99902.53;;;24.20;36.60
46876;BME280;32866;50.160;14.768;2023-04-30T10:49:00;99894.75;;;24.07;35.22
46876;BME280;32866;50.160;14.768;2023-04-30T10:51:44;99888.44;;;25.35;32.26
46876;BME280;32866;50.160;14.768;2023-04-30T10:54:10;99889.09;;;26.18;32.66
46876;BME280;32866;50.160;14.768;2023-04-30T10:56:37;99879.88;;;25.66;31.68
46876;BME280;32866;50.160;14.768;2023-04-30T10:59:03;99878.38;;;25.46;33.65
46876;BME280;32866;50.160;14.768;2023-04-30T11:01:29;99886.19;;;26.23;30.89
46876;BME280;32866;50.160;14.768;2023-04-30T11:04:05;99891.63;;;25.83;32.38
46876;BME280;32866;50.160;14.768;2023-04-30T11:09:18;99854.50;;;26.69;32.15
46876;BME280;32866;50.160;14.768;2023-04-30T11:11:45;99880.34;;;26.21;32.75
46876;BME280;32866;50.160;14.768;2023-04-30T11:14:12;99888.38;;;24.42;33.62
46876;BME280;32866;50.160;14.768;2023-04-30T11:16:48;99877.91;;;24.13;31.24
46876;BME280;32866;50.160;14.768;2023-04-30T11:19:13;99850.59;;;24.24;34.10
46876;BME280;32866;50.160;14.768;2023-04-30T11:25:09;99879.38;;;26.32;30.60
46876;BME280;32866;50.160;14.768;2023-04-30T11:27:36;99879.63;;;25.64;30.62
46876;BME280;32866;50.160;14.768;2023-04-30T11:30:08;99875.59;;;25.97;27.82
46876;BME280;32866;50.160;14.768;2023-04-30T11:32:36;99887.72;;;26.05;30.26
46876;BME280;32866;50.160;14.768;2023-04-30T11:35:02;99883.03;;;25.95;29.24
46876;BME280;32866;50.160;14.768;2023-04-30T11:37:42;99880.38;;;26.02;30.50
46876;BME280;32866;50.160;14.768;2023-04-30T11:40:10;99878.22;;;26.41;28.71
46876;BME280;32866;50.160;14.768;2023-04-30T11:42:36;99862.56;;;27.73;27.85
46876;BME280;32866;50.160;14.768;2023-04-30T11:45:05;99855.53;;;26.52;29.93
46876;BME280;32866;50.160;14.768;2023-04-30T11:47:53;99871.91;;;26.21;31.76
46876;BME280;32866;50.160;14.768;2023-04-30T11:50:20;99853.69;;;26.28;29.26
46876;BME280;32866;50.160;14.768;2023-04-30T11:52:52;99868.06;;;25.54;30.59
46876;BME280;32866;50.160;14.768;2023-04-30T11:55:19;99865.97;;;26.71;27.86
46876;BME280;32866;50.160;14.768;2023-04-30T11:57:47;99867.03;;;26.68;30.95
46876;BME280;32866;50.160;14.768;2023-04-30T12:00:15;99868.47;;;28.18;29.75
46876;BME280;32866;50.160;14.768;2023-04-30T12:02:42;99858.94;;;26.18;30.22
46876;BME280;32866;50.160;14.768;2023-04-30T12:05:17;99867.41;;;24.55;32.65
46876;BME280;32866;50.160;14.768;2023-04-30T12:07:47;99864.94;;;25.58;32.72
46876;BME280;32866;50.160;14.768;2023-04-30T12:10:13;99867.44;;;25.61;32.53
46876;BME280;32866;50.160;14.768;2023-04-30T12:12:38;99865.41;;;26.99;29.38
46876;BME280;32866;50.160;14.768;2023-04-30T12:15:15;99872.16;;;25.53;31.24
46876;BME280;32866;50.160;14.768;2023-04-30T12:17:41;99865.84;;;27.30;28.10
46876;BME280;32866;50.160;14.768;2023-04-30T12:20:07;99868.72;;;26.44;28.96
46876;BME280;32866;50.160;14.768;2023-04-30T12:22:33;99858.38;;;25.87;32.31
46876;BME280;32866;50.160;14.768;2023-04-30T12:25:04;99846.53;;;25.95;29.75
46876;BME280;32866;50.160;14.768;2023-04-30T12:27:32;99871.63;;;26.06;31.18
46876;BME280;32866;50.160;14.768;2023-04-30T12:30:03;99864.53;;;26.05;30.41
46876;BME280;32866;50.160;14.768;2023-04-30T12:32:36;99859.41;;;25.71;31.69
46876;BME280;32866;50.160;14.768;2023-04-30T12:35:02;99854.63;;;26.63;30.01
46876;BME280;32866;50.160;14.768;2023-04-30T12:37:29;99863.88;;;26.12;29.12
46876;BME280;32866;50.160;14.768;2023-04-30T12:39:54;99861.84;;;27.38;28.33
46876;BME280;32866;50.160;14.768;2023-04-30T12:42:20;99831.16;;;26.74;28.63
46876;BME280;32866;50.160;14.768;2023-04-30T12:44:45;99821.78;;;27.46;29.78
46876;BME280;32866;50.160;14.768;2023-04-30T12:47:11;99853.66;;;27.83;27.76
46876;BME280;32866;50.160;14.768;2023-04-30T12:49:38;99806.34;;;25.86;30.94
46876;BME280;32866;50.160;14.768;2023-04-30T12:52:08;99853.41;;;26.58;30.16
46876;BME280;32866;50.160;14.768;2023-04-30T12:54:35;99848.41;;;27.31;29.33
46876;BME280;32866;50.160;14.768;2023-04-30T12:57:09;99852.63;;;25.99;30.82
46876;BME280;32866;50.160;14.768;2023-04-30T12:59:54;99846.03;;;25.77;30.91
46876;BME280;32866;50.160;14.768;2023-04-30T13:02:23;99836.81;;;25.63;27.24
46876;BME280;32866;50.160;14.768;2023-04-30T13:04:49;99827.44;;;25.42;31.18
46876;BME280;32866;50.160;14.768;2023-04-30T13:07:15;99833.75;;;25.80;30.10
46876;BME280;32866;50.160;14.768;2023-04-30T13:09:40;99832.41;;;25.68;30.70